Aeroporto :
LOGIN :

Iscrizione | Disclaimer

   EN    FR    IT 

 










Sommario :    VFR   VFR Marginale   IFR   IFR Intensivo   IFR Molto Intensivo
Visibilità : 
Base nubi : 
>= 8 km
>= 3000ft
5 / 8 km
1000 / 3000 ft
1500m / 5 km
500 / 1000 ft
800 / 1500m
200 / 500 ft
< 800m
< 200 ft
Simboli :   Temporali  Nebbia  Neve Forte  Precipitazioni Forti  Vento > 20 kt
SIGMETs :   Varie  Temporali  Ghiacco  Turbolenza  Onda orograficha  Ceneri Vulcaniche






- Altitudine del aeroporto : 659 ft
- Codice IATA : LGG


EBLG - Liège

ULTIMO METAR :
  • 182150Z 21016KT 9999 FEW029 BKN047 06/02 Q1018 NOSIG

METARs OBSOLETI :
  • 182120Z 21018KT 9999 FEW029 SCT047 06/02 Q1019 NOSIG
  • 182050Z 21016KT 9999 SCT039 BKN047 06/02 Q1019 NOSIG
  • 182020Z 22017KT 9999 FEW020 06/02 Q1020 NOSIG
  • 181950Z 21016KT 9999 FEW020 06/02 Q1020 NOSIG
  • 181920Z 21014KT 9999 FEW020 06/02 Q1020 NOSIG
  • 181850Z 21013KT 9999 FEW020 06/02 Q1021 NOSIG

TAF TAF EBLG
Valido dal 18 a 18 ore il 20 a 00 ore UTC


181704Z 1818/1924 21016G28KT 9999 FEW020 SCT030
TEMPO 1821/1904 4000 SHRA RA BKN013CB
PROB40
TEMPO 1823/1902 21020G38KT 2500 SHRA SHRAGS
BECMG 1901/1903 26012KT
PROB40
TEMPO 1918/1924 4500 RA BKN012



MetMap, La meteo Aeronautica in un colpo d'occhio ! - Copyright ORBIFLY Dicembre 2007 - Disclaimer

ORBIFLY MET'MAP TEAM :

Programmazione e sviluppo : Alexandra Zaïnal
Concezione : Baudouin d'Aumeries
Aiuto per la programmazione : Marc-Olivier Méhu
Supporto tecnico e logistico : Manuel Goepfert
Aiuto per la traduzione : Arnaldo La Scala

Contatto : metmap@orbifly.com




FONTI E CREDITI :

   NOAA